createdAt,value
2016-04-25T00:00:04.216Z,43.49
2016-04-25T00:01:04.250Z,43.42
2016-04-25T00:02:04.268Z,43.3
2016-04-25T00:03:04.301Z,43.49
2016-04-25T00:04:04.304Z,43.59
2016-04-25T00:05:04.323Z,43.49
2016-04-25T00:06:04.341Z,43.78
2016-04-25T00:07:04.359Z,43.49
2016-04-25T00:08:04.377Z,43.68
2016-04-25T00:09:04.395Z,43.68
2016-04-25T00:10:04.415Z,44.06
2016-04-25T00:11:04.433Z,43.97
2016-04-25T00:12:04.451Z,43.97
2016-04-25T00:13:04.500Z,43.78
2016-04-25T00:14:04.487Z,43.87
2016-04-25T00:15:04.506Z,44.06
2016-04-25T00:16:04.524Z,43.97
2016-04-25T00:17:04.543Z,43.87
2016-04-25T00:18:04.561Z,43.87
2016-04-25T00:19:04.578Z,44.35
2016-04-25T00:20:06.300Z,44.35
2016-04-25T00:21:04.616Z,44.45
2016-04-25T00:22:04.633Z,44.26
2016-04-25T00:23:04.657Z,44.45
2016-04-25T00:24:04.676Z,44.35
2016-04-25T00:25:04.695Z,44.45
2016-04-25T00:26:04.712Z,44.35
2016-04-25T00:27:06.668Z,44.64
2016-04-25T00:28:04.750Z,44.54
2016-04-25T00:29:04.767Z,44.54
2016-04-25T00:30:04.787Z,44.64
2016-04-25T00:31:04.804Z,44.35
2016-04-25T00:32:04.823Z,44.54
2016-04-25T00:33:04.842Z,44.35
2016-04-25T00:34:04.859Z,44.64
2016-04-25T00:35:04.878Z,44.54
2016-04-25T00:36:04.896Z,44.73
2016-04-25T00:37:04.900Z,44.92
2016-04-25T00:38:04.933Z,44.92
2016-04-25T00:39:04.951Z,44.92
2016-04-25T00:40:04.969Z,44.92
2016-04-25T00:41:04.972Z,45.01
2016-04-25T00:42:05.880Z,45.01
2016-04-25T00:43:05.259Z,45.11
2016-04-25T00:44:05.027Z,44.92
2016-04-25T00:45:05.046Z,45.01
2016-04-25T00:46:05.079Z,45.01
2016-04-25T00:47:05.098Z,45.01
2016-04-25T00:48:05.100Z,45.21
2016-04-25T00:49:05.135Z,45.09
2016-04-25T00:50:05.152Z,45.21
2016-04-25T00:51:05.171Z,45.21
2016-04-25T00:52:05.189Z,45.37
2016-04-25T00:53:05.208Z,45.37
2016-04-25T00:54:05.210Z,45.47
2016-04-25T00:55:05.088Z,45.37
2016-04-25T00:56:05.262Z,45.47
2016-04-25T00:57:05.266Z,45.37
2016-04-25T00:58:05.299Z,45.28
2016-04-25T00:59:05.318Z,45.37
2016-04-25T01:00:05.336Z,45.28
2016-04-25T01:01:05.338Z,45.56
2016-04-25T01:02:05.372Z,45.56
2016-04-25T01:03:05.391Z,45.47
2016-04-25T01:04:05.393Z,45.56
2016-04-25T01:05:05.428Z,45.47
2016-04-25T01:06:05.430Z,45.75
2016-04-25T01:07:05.464Z,45.56
2016-04-25T01:08:05.467Z,45.66
2016-04-25T01:09:05.486Z,45.66
2016-04-25T01:10:05.503Z,45.56
2016-04-25T01:11:05.521Z,45.75
2016-04-25T01:12:06.696Z,46.04
2016-04-25T01:13:05.667Z,45.66
2016-04-25T01:14:05.577Z,46.04
2016-04-25T01:15:05.594Z,45.95
2016-04-25T01:16:05.629Z,46.04
2016-04-25T01:17:05.632Z,45.95
2016-04-25T01:18:05.650Z,46.04
2016-04-25T01:19:05.668Z,46.04
2016-04-25T01:20:05.686Z,45.95
2016-04-25T01:21:05.704Z,46.04
2016-04-25T01:22:05.739Z,46.23
2016-04-25T01:23:05.741Z,45.85
2016-04-25T01:24:05.759Z,46.04
2016-04-25T01:25:05.778Z,45.95
2016-04-25T01:26:05.796Z,46.04
2016-04-25T01:27:05.924Z,45.95
2016-04-25T01:28:06.646Z,46.14
2016-04-25T01:29:05.851Z,46.42
2016-04-25T01:30:05.870Z,46.33
2016-04-25T01:31:05.888Z,46.33
2016-04-25T01:32:05.906Z,46.51
2016-04-25T01:33:05.925Z,46.33
2016-04-25T01:34:05.943Z,46.33
2016-04-25T01:35:05.976Z,46.61
2016-04-25T01:36:05.979Z,46.51
2016-04-25T01:37:05.998Z,46.42
2016-04-25T01:38:06.031Z,46.23
2016-04-25T01:39:06.034Z,46.8
2016-04-25T01:40:06.053Z,46.61
2016-04-25T01:41:06.072Z,46.89
2016-04-25T01:42:06.105Z,46.8
2016-04-25T01:43:07.138Z,46.89
2016-04-25T01:44:06.157Z,46.7
2016-04-25T01:45:06.128Z,46.89
2016-04-25T01:46:06.147Z,47.09
2016-04-25T01:47:06.166Z,46.99
2016-04-25T01:48:06.183Z,46.8
2016-04-25T01:49:06.202Z,46.89
2016-04-25T01:50:06.221Z,46.8
2016-04-25T01:51:06.238Z,47.18
2016-04-25T01:52:06.257Z,47.18
2016-04-25T01:53:06.275Z,46.7
2016-04-25T01:54:06.294Z,47.37
2016-04-25T01:55:06.312Z,47.28
2016-04-25T01:56:06.330Z,47.28
2016-04-25T01:57:06.348Z,47.34
2016-04-25T01:58:06.710Z,47.37
2016-04-25T01:59:06.385Z,47.25
2016-04-25T02:00:06.840Z,47.37
2016-04-25T02:01:06.422Z,47.34
2016-04-25T02:02:06.549Z,47.09
2016-04-25T02:03:06.443Z,47.37
2016-04-25T02:04:06.461Z,47.18
2016-04-25T02:05:06.479Z,47.56
2016-04-25T02:06:06.514Z,47.63
2016-04-25T02:07:06.517Z,47.63
2016-04-25T02:08:06.550Z,47.85
2016-04-25T02:09:06.568Z,47.44
2016-04-25T02:10:06.570Z,47.47
2016-04-25T02:11:06.590Z,47.44
2016-04-25T02:12:06.608Z,47.63
2016-04-25T02:13:07.032Z,47.73
2016-04-25T02:14:06.644Z,47.66
2016-04-25T02:15:06.678Z,47.75
2016-04-25T02:16:06.697Z,47.73
2016-04-25T02:17:06.699Z,47.44
2016-04-25T02:18:06.717Z,47.54
2016-04-25T02:19:06.766Z,47.92
2016-04-25T02:20:06.785Z,47.92
2016-04-25T02:21:06.773Z,47.73
2016-04-25T02:22:06.791Z,47.63
2016-04-25T02:23:06.809Z,47.63
2016-04-25T02:24:06.812Z,47.73
2016-04-25T02:25:06.829Z,47.73
2016-04-25T02:26:06.849Z,47.73
2016-04-25T02:27:06.883Z,47.63
2016-04-25T02:28:06.900Z,47.73
2016-04-25T02:29:06.904Z,47.73
2016-04-25T02:30:06.921Z,47.73
2016-04-25T02:31:06.940Z,47.73
2016-04-25T02:32:06.959Z,47.73
2016-04-25T02:33:06.977Z,47.34
2016-04-25T02:34:06.980Z,48.01
2016-04-25T02:35:07.013Z,48.01
2016-04-25T02:36:07.031Z,47.92
2016-04-25T02:37:07.065Z,47.92
2016-04-25T02:38:07.067Z,47.92
2016-04-25T02:39:07.086Z,47.82
2016-04-25T02:40:07.121Z,47.82
2016-04-25T02:41:07.108Z,47.82
2016-04-25T02:42:07.126Z,47.82
2016-04-25T02:43:07.003Z,48.01
2016-04-25T02:44:07.162Z,47.82
2016-04-25T02:45:07.181Z,48.01
2016-04-25T02:46:07.200Z,47.92
2016-04-25T02:47:07.217Z,48.11
2016-04-25T02:48:07.252Z,48.11
2016-04-25T02:49:07.255Z,48.11
2016-04-25T02:50:07.272Z,48.01
2016-04-25T02:51:07.291Z,48.21
2016-04-25T02:52:07.309Z,48.11
2016-04-25T02:53:07.327Z,47.73
2016-04-25T02:54:07.346Z,48.11
2016-04-25T02:55:07.348Z,48.3
2016-04-25T02:56:07.383Z,48.21
2016-04-25T02:57:07.401Z,48.39
2016-04-25T02:58:07.419Z,48.11
2016-04-25T02:59:07.438Z,48.01
2016-04-25T03:00:07.455Z,47.82
2016-04-25T03:01:07.458Z,47.82
2016-04-25T03:02:07.492Z,48.11
2016-04-25T03:03:07.496Z,48.3
2016-04-25T03:04:07.513Z,48.3
2016-04-25T03:05:07.531Z,48.01
2016-04-25T03:06:07.551Z,47.92
2016-04-25T03:07:07.568Z,48.39
2016-04-25T03:08:07.570Z,47.92
2016-04-25T03:09:07.604Z,48.3
2016-04-25T03:10:07.623Z,48.21
2016-04-25T03:11:07.642Z,47.92
2016-04-25T03:12:07.644Z,48.39
2016-04-25T03:13:07.662Z,48.39
2016-04-25T03:14:07.697Z,48.11
2016-04-25T03:15:07.714Z,48.77
2016-04-25T03:16:07.733Z,48.3
2016-04-25T03:17:07.736Z,48.87
2016-04-25T03:18:07.753Z,48.87
2016-04-25T03:19:07.773Z,48.39
2016-04-25T03:20:07.791Z,48.39
2016-04-25T03:21:07.808Z,48.68
2016-04-25T03:22:07.811Z,48.49
2016-04-25T03:23:07.846Z,48.11
2016-04-25T03:24:07.848Z,48.68
2016-04-25T03:25:07.882Z,48.49
2016-04-25T03:26:07.900Z,48.49
2016-04-25T03:27:07.903Z,48.39
2016-04-25T03:28:09.312Z,48.68
2016-04-25T03:29:07.955Z,48.39
2016-04-25T03:30:07.957Z,48.68
2016-04-25T03:31:07.976Z,48.58
2016-04-25T03:32:07.996Z,49.15
2016-04-25T03:33:08.012Z,48.58
2016-04-25T03:34:08.032Z,49.06
2016-04-25T03:35:08.049Z,49.15
2016-04-25T03:36:08.068Z,48.96
2016-04-25T03:37:08.102Z,48.87
2016-04-25T03:38:08.104Z,48.87
2016-04-25T03:39:08.107Z,48.96
2016-04-25T03:40:08.125Z,49.15
2016-04-25T03:41:08.159Z,48.49
2016-04-25T03:42:08.162Z,48.39
2016-04-25T03:43:08.165Z,48.58
2016-04-25T03:44:08.198Z,48.49
2016-04-25T03:45:08.217Z,48.58
2016-04-25T03:46:08.236Z,48.58
2016-04-25T03:47:08.254Z,48.96
2016-04-25T03:48:08.272Z,48.68
2016-04-25T03:49:08.291Z,48.96
2016-04-25T03:50:08.309Z,48.68
2016-04-25T03:51:08.327Z,48.87
2016-04-25T03:52:08.345Z,48.96
2016-04-25T03:53:08.345Z,48.87
2016-04-25T03:54:08.364Z,48.77
2016-04-25T03:55:08.382Z,48.77
2016-04-25T03:56:08.416Z,48.87
2016-04-25T03:57:08.419Z,48.77
2016-04-25T03:58:08.453Z,49.06
2016-04-25T03:59:08.455Z,48.39
2016-04-25T04:00:08.488Z,48.21
2016-04-25T04:01:08.476Z,48.77
2016-04-25T04:02:08.511Z,48.77
2016-04-25T04:03:08.529Z,48.68
2016-04-25T04:04:08.546Z,48.49
2016-04-25T04:05:08.565Z,49.06
2016-04-25T04:06:08.568Z,49.15
2016-04-25T04:07:08.587Z,48.96
2016-04-25T04:08:08.604Z,48.68
2016-04-25T04:09:08.623Z,48.87
2016-04-25T04:10:08.641Z,48.87
2016-04-25T04:11:08.660Z,48.77
2016-04-25T04:12:08.678Z,48.77
2016-04-25T04:13:08.695Z,48.87
2016-04-25T04:14:08.714Z,49.06
2016-04-25T04:15:08.734Z,48.96
2016-04-25T04:16:08.751Z,48.77
2016-04-25T04:17:08.770Z,48.96
2016-04-25T04:18:08.772Z,48.96
2016-04-25T04:19:08.806Z,48.87
2016-04-25T04:20:08.809Z,49.06
2016-04-25T04:21:08.842Z,49.06
2016-04-25T04:22:08.846Z,48.77
2016-04-25T04:23:08.864Z,48.77
2016-04-25T04:24:08.883Z,48.77
2016-04-25T04:25:08.900Z,48.87
2016-04-25T04:26:08.919Z,48.75
2016-04-25T04:27:08.921Z,48.75
2016-04-25T04:28:08.940Z,48.96
2016-04-25T04:29:09.661Z,48.96
2016-04-25T04:30:08.992Z,48.94
2016-04-25T04:31:08.994Z,48.94
2016-04-25T04:32:09.013Z,48.85
2016-04-25T04:33:09.031Z,48.96
2016-04-25T04:34:09.050Z,49.06
2016-04-25T04:35:09.068Z,48.87
2016-04-25T04:36:09.086Z,49.22
2016-04-25T04:37:09.104Z,49.22
2016-04-25T04:38:09.123Z,49.25
2016-04-25T04:39:09.141Z,49.73
2016-04-25T04:40:09.143Z,49.15
2016-04-25T04:41:09.162Z,49.73
2016-04-25T04:42:09.196Z,49.22
2016-04-25T04:43:09.527Z,49.25
2016-04-25T04:44:09.217Z,49.41
2016-04-25T04:45:09.220Z,49.7
2016-04-25T04:46:09.237Z,49.35
2016-04-25T04:47:09.257Z,50.27
2016-04-25T04:48:09.290Z,50.27
2016-04-25T04:49:09.325Z,50.29
2016-04-25T04:50:09.327Z,49.98
2016-04-25T04:51:09.330Z,49.44
2016-04-25T04:52:09.348Z,50.01
2016-04-25T04:53:09.367Z,49.44
2016-04-25T04:54:09.384Z,50.2
2016-04-25T04:55:09.419Z,49.91
2016-04-25T04:56:09.421Z,49.35
2016-04-25T04:57:09.439Z,50.1
2016-04-25T04:58:09.349Z,49.63
2016-04-25T04:59:09.460Z,49.44
2016-04-25T05:00:09.479Z,49.54
2016-04-25T05:01:09.513Z,50.1
2016-04-25T05:02:09.516Z,50.1
2016-04-25T05:03:09.533Z,49.54
2016-04-25T05:04:09.552Z,49.54
2016-04-25T05:05:09.571Z,49.25
2016-04-25T05:06:09.589Z,49.63
2016-04-25T05:07:09.591Z,49.25
2016-04-25T05:08:09.626Z,50.1
2016-04-25T05:09:09.706Z,49.54
2016-04-25T05:10:09.662Z,50.1
2016-04-25T05:11:09.680Z,49.73
2016-04-25T05:12:09.699Z,49.82
2016-04-25T05:13:09.596Z,49.91
2016-04-25T05:14:09.814Z,49.54
2016-04-25T05:15:09.878Z,49.73
2016-04-25T05:16:09.924Z,49.82
2016-04-25T05:17:09.987Z,49.44
2016-04-25T05:18:10.026Z,49.54
2016-04-25T05:19:10.076Z,50.1
2016-04-25T05:20:10.094Z,49.91
2016-04-25T05:21:10.113Z,49.54
2016-04-25T05:22:10.147Z,50.29
2016-04-25T05:23:10.188Z,49.63
2016-04-25T05:24:10.213Z,50.29
2016-04-25T05:25:10.222Z,49.91
2016-04-25T05:26:10.246Z,49.54
2016-04-25T05:27:10.269Z,49.73
2016-04-25T05:28:10.165Z,50.01
2016-04-25T05:29:10.357Z,50.1
2016-04-25T05:30:10.330Z,49.63
2016-04-25T05:31:10.352Z,50.39
2016-04-25T05:32:10.371Z,49.82
2016-04-25T05:33:10.390Z,50.2
2016-04-25T05:34:10.410Z,49.91
2016-04-25T05:35:10.428Z,50.39
2016-04-25T05:36:10.448Z,50.2
2016-04-25T05:37:10.451Z,49.82
2016-04-25T05:38:10.470Z,50.29
2016-04-25T05:39:10.488Z,50.39
2016-04-25T05:40:10.508Z,50.39
2016-04-25T05:41:10.526Z,50.39
2016-04-25T05:42:10.545Z,50.1
2016-04-25T05:43:10.563Z,49.73
2016-04-25T05:44:10.426Z,50.2
2016-04-25T05:45:10.600Z,50.39
2016-04-25T05:46:10.617Z,50.48
2016-04-25T05:47:10.620Z,50.01
2016-04-25T05:48:10.639Z,49.91
2016-04-25T05:49:10.673Z,49.63
2016-04-25T05:50:10.676Z,49.82
2016-04-25T05:51:10.694Z,49.35
2016-04-25T05:52:10.712Z,49.25
2016-04-25T05:53:10.747Z,49.25
2016-04-25T05:54:10.749Z,50.1
2016-04-25T05:55:10.766Z,50.2
2016-04-25T05:56:10.786Z,49.54
2016-04-25T05:57:10.804Z,50.2
2016-04-25T05:58:10.916Z,49.54
2016-04-25T05:59:10.857Z,50.13
2016-04-25T06:00:10.843Z,49.37
2016-04-25T06:01:10.862Z,50.1
2016-04-25T06:02:10.879Z,49.75
2016-04-25T06:03:10.899Z,49.56
2016-04-25T06:04:10.916Z,49.85
2016-04-25T06:05:10.934Z,49.85
2016-04-25T06:06:10.969Z,49.37
2016-04-25T06:07:10.971Z,49.37
2016-04-25T06:08:10.990Z,49.56
2016-04-25T06:09:11.009Z,49.37
2016-04-25T06:10:11.011Z,50.23
2016-04-25T06:11:11.045Z,49.65
2016-04-25T06:12:11.047Z,49.65
2016-04-25T06:13:11.050Z,50.13
2016-04-25T06:14:11.084Z,49.37
2016-04-25T06:15:11.103Z,49.65
2016-04-25T06:16:11.120Z,50.04
2016-04-25T06:17:11.139Z,50.23
2016-04-25T06:18:11.158Z,49.18
2016-04-25T06:19:11.175Z,49.37
2016-04-25T06:20:11.194Z,49.94
2016-04-25T06:21:11.212Z,49.18
2016-04-25T06:22:11.261Z,49.94
2016-04-25T06:23:11.250Z,49.75
2016-04-25T06:24:11.284Z,49.94
2016-04-25T06:25:11.286Z,49.94
2016-04-25T06:26:11.289Z,48.99
2016-04-25T06:27:11.308Z,49.85
2016-04-25T06:28:20.750Z,49.37
2016-04-25T06:29:11.797Z,49.75
2016-04-25T06:30:12.362Z,49.46
2016-04-25T06:31:11.381Z,49.56
2016-04-25T06:32:11.399Z,48.92
2016-04-25T06:33:11.417Z,48.71
2016-04-25T06:34:11.452Z,48.44
2016-04-25T06:35:11.469Z,48.44
2016-04-25T06:36:11.473Z,48.63
2016-04-25T06:37:11.491Z,48.73
2016-04-25T06:38:11.508Z,48.35
2016-04-25T06:39:11.528Z,48.06
2016-04-25T06:40:11.545Z,48.25
2016-04-25T06:41:11.549Z,48.25
2016-04-25T06:42:11.598Z,48.44
2016-04-25T06:43:12.507Z,48.16
2016-04-25T06:44:11.665Z,47.97
2016-04-25T06:45:11.638Z,47.97
2016-04-25T06:46:11.655Z,48.06
2016-04-25T06:47:11.658Z,48.25
2016-04-25T06:48:11.676Z,47.97
2016-04-25T06:49:11.696Z,47.97
2016-04-25T06:50:11.712Z,47.97
2016-04-25T06:51:11.576Z,47.97
2016-04-25T06:52:11.750Z,48.16
2016-04-25T06:53:11.768Z,48.06
2016-04-25T06:54:11.786Z,48.06
2016-04-25T06:55:11.805Z,47.87
2016-04-25T06:56:11.823Z,47.97
2016-04-25T06:57:11.842Z,48.16
2016-04-25T06:58:11.750Z,47.78
2016-04-25T06:59:11.722Z,47.87
2016-04-25T07:00:11.897Z,47.11
2016-04-25T07:01:11.915Z,47.58
2016-04-25T07:02:11.933Z,47.58
2016-04-25T07:03:11.935Z,47.87
2016-04-25T07:04:11.953Z,48.06
2016-04-25T07:05:11.972Z,48.25
2016-04-25T07:06:12.006Z,48.06
2016-04-25T07:07:12.009Z,47.97
2016-04-25T07:08:12.027Z,47.97
2016-04-25T07:09:12.046Z,48.35
2016-04-25T07:10:12.064Z,48.25
2016-04-25T07:11:12.082Z,48.25
2016-04-25T07:12:12.100Z,48.82
2016-04-25T07:13:12.150Z,48.44
2016-04-25T07:14:12.137Z,48.63
2016-04-25T07:15:12.155Z,48.63
2016-04-25T07:16:12.174Z,48.73
2016-04-25T07:17:12.192Z,48.82
2016-04-25T07:18:12.210Z,48.82
2016-04-25T07:19:12.229Z,48.92
2016-04-25T07:20:12.247Z,48.92
2016-04-25T07:21:12.265Z,49.49
2016-04-25T07:22:12.284Z,49.01
2016-04-25T07:23:12.301Z,49.4
2016-04-25T07:24:12.320Z,49.87
2016-04-25T07:25:12.339Z,49.11
2016-04-25T07:26:12.357Z,49.4
2016-04-25T07:27:12.375Z,49.3
2016-04-25T07:28:12.393Z,49.4
2016-04-25T07:29:12.412Z,49.11
2016-04-25T07:30:12.414Z,49.11
2016-04-25T07:31:12.448Z,49.01
2016-04-25T07:32:12.451Z,49.87
2016-04-25T07:33:12.486Z,49.3
2016-04-25T07:34:12.503Z,49.42
2016-04-25T07:35:12.506Z,49.13
2016-04-25T07:36:12.540Z,49.04
2016-04-25T07:37:12.542Z,48.85
2016-04-25T07:38:12.561Z,48.56
2016-04-25T07:39:12.579Z,48.85
2016-04-25T07:40:12.598Z,48.37
2016-04-25T07:41:12.616Z,48.37
2016-04-25T07:42:12.635Z,48.27
2016-04-25T07:43:13.246Z,48.27
2016-04-25T07:44:12.530Z,48.08
2016-04-25T07:45:12.688Z,48.37
2016-04-25T07:46:12.708Z,48.18
2016-04-25T07:47:12.726Z,47.8
2016-04-25T07:48:12.744Z,48.25
2016-04-25T07:49:12.762Z,47.89
2016-04-25T07:50:12.781Z,47.8
2016-04-25T07:51:12.799Z,48.08
2016-04-25T07:52:12.817Z,48.18
2016-04-25T07:53:12.836Z,48.08
2016-04-25T07:54:12.854Z,47.8
2016-04-25T07:55:12.873Z,48.18
2016-04-25T07:56:12.891Z,47.8
2016-04-25T07:57:12.909Z,47.8
2016-04-25T07:58:12.911Z,47.61
2016-04-25T07:59:13.212Z,47.99
2016-04-25T08:00:12.964Z,47.99
2016-04-25T08:01:12.982Z,47.99
2016-04-25T08:02:13.001Z,47.99
2016-04-25T08:03:13.019Z,47.71
2016-04-25T08:04:13.037Z,47.13
2016-04-25T08:05:13.056Z,46.84
2016-04-25T08:06:13.074Z,46.58
2016-04-25T08:07:13.092Z,46.3
2016-04-25T08:08:13.111Z,46.11
2016-04-25T08:09:13.128Z,45.92
2016-04-25T08:10:13.147Z,45.63
2016-04-25T08:11:13.166Z,45.73
2016-04-25T08:12:13.184Z,45.83
2016-04-25T08:13:13.211Z,45.63
2016-04-25T08:14:13.214Z,45.54
2016-04-25T08:15:13.232Z,45.35
2016-04-25T08:16:13.250Z,45.06
2016-04-25T08:17:13.268Z,44.78
2016-04-25T08:18:13.287Z,44.78
2016-04-25T08:19:13.305Z,44.78
2016-04-25T08:20:13.324Z,44.78
2016-04-25T08:21:13.341Z,44.78
2016-04-25T08:22:13.375Z,44.78
2016-04-25T08:23:13.379Z,44.87
2016-04-25T08:24:13.414Z,44.68
2016-04-25T08:25:13.416Z,44.96
2016-04-25T08:26:13.434Z,44.87
2016-04-25T08:27:13.453Z,44.39
2016-04-25T08:28:13.486Z,44.39
2016-04-25T08:29:13.489Z,44.2
2016-04-25T08:30:13.508Z,44.2
2016-04-25T08:31:13.526Z,43.73
2016-04-25T08:32:13.560Z,43.73
2016-04-25T08:33:13.578Z,43.82
2016-04-25T08:34:15.440Z,43.25
2016-04-25T08:35:13.600Z,43.63
2016-04-25T08:36:13.617Z,43.63
2016-04-25T08:37:13.636Z,43.46
2016-04-25T08:38:13.654Z,43.08
2016-04-25T08:39:13.672Z,43.56
2016-04-25T08:40:13.691Z,43.37
2016-04-25T08:41:13.713Z,42.99
2016-04-25T08:42:13.732Z,42.89
2016-04-25T08:43:13.751Z,42.22
2016-04-25T08:44:14.143Z,41.84
2016-04-25T08:45:13.788Z,42.7
2016-04-25T08:46:13.806Z,42.7
2016-04-25T08:47:13.824Z,42.13
2016-04-25T08:48:13.857Z,42.13
2016-04-25T08:49:13.860Z,41.94
2016-04-25T08:50:13.879Z,41.75
2016-04-25T08:51:13.897Z,42.13
2016-04-25T08:52:13.931Z,41.75
2016-04-25T08:53:13.950Z,40.7
2016-04-25T08:54:13.967Z,40.72
2016-04-25T08:55:13.970Z,40.89
2016-04-25T08:56:13.989Z,40.72
2016-04-25T08:57:14.006Z,40.81
2016-04-25T08:58:14.041Z,40.72
2016-04-25T08:59:14.591Z,40.44
2016-04-25T09:00:14.094Z,40.72
2016-04-25T09:01:14.080Z,40.63
2016-04-25T09:02:14.099Z,39.95
2016-04-25T09:03:14.132Z,39.86
2016-04-25T09:04:14.150Z,39.67
2016-04-25T09:05:14.169Z,39.39
2016-04-25T09:06:14.188Z,39.29
2016-04-25T09:07:14.221Z,39.22
2016-04-25T09:08:14.224Z,39.12
2016-04-25T09:09:14.493Z,39.12
2016-04-25T09:10:14.261Z,38.83
2016-04-25T09:11:14.279Z,38.73
2016-04-25T09:12:14.297Z,39.02
2016-04-25T09:13:14.331Z,38.83
2016-04-25T09:14:14.334Z,38.26
2016-04-25T09:15:14.352Z,38.17
2016-04-25T09:16:14.401Z,37.88
2016-04-25T09:17:14.408Z,37.78
2016-04-25T09:18:14.427Z,37.59
2016-04-25T09:19:14.430Z,37.61
2016-04-25T09:20:14.447Z,37.42
2016-04-25T09:21:14.482Z,36.66
2016-04-25T09:22:14.485Z,36.56
2016-04-25T09:23:14.519Z,36.27
2016-04-25T09:24:14.537Z,35.8
2016-04-25T09:25:14.555Z,35.22
2016-04-25T09:26:14.979Z,35.03
2016-04-25T09:27:14.591Z,34.94
2016-04-25T09:28:14.610Z,35.22
2016-04-25T09:29:17.082Z,35.14
2016-04-25T09:30:13.912Z,35.14
2016-04-25T09:31:14.681Z,35.13
2016-04-25T09:32:14.683Z,34.86
2016-04-25T09:33:14.702Z,34.77
2016-04-25T09:34:14.735Z,34.57
2016-04-25T09:35:14.753Z,34.67
2016-04-25T09:36:14.772Z,34.28
2016-04-25T09:37:14.790Z,34.38
2016-04-25T09:38:14.825Z,33.62
2016-04-25T09:39:15.420Z,33.42
2016-04-25T09:40:14.845Z,33.33
2016-04-25T09:41:14.864Z,33.15
2016-04-25T09:42:14.881Z,33.15
2016-04-25T09:43:14.916Z,33.25
2016-04-25T09:44:15.825Z,33.54
2016-04-25T09:45:14.952Z,33.54
2016-04-25T09:46:14.971Z,33.54
2016-04-25T09:47:14.989Z,33.73
2016-04-25T09:48:15.008Z,34.3
2016-04-25T09:49:16.447Z,33.84
2016-04-25T09:50:14.310Z,33.75
2016-04-25T09:51:15.078Z,33.65
2016-04-25T09:52:15.080Z,32.21
2016-04-25T09:53:15.115Z,31.64
2016-04-25T09:54:15.132Z,30.88
2016-04-25T09:55:15.151Z,30.78
2016-04-25T09:56:15.029Z,30.4
2016-04-25T09:57:15.204Z,30.11
2016-04-25T09:58:15.221Z,29.63
2016-04-25T09:59:15.084Z,29.63
2016-04-25T10:00:15.259Z,29.44
2016-04-25T10:01:15.277Z,29.73
2016-04-25T10:02:15.326Z,30.11
2016-04-25T10:03:15.329Z,30.11
2016-04-25T10:04:15.347Z,29.35
2016-04-25T10:05:15.365Z,29.16
2016-04-25T10:06:15.384Z,28.68
2016-04-25T10:07:15.403Z,28.87
2016-04-25T10:08:15.420Z,28.77
2016-04-25T10:09:15.283Z,28.97
2016-04-25T10:10:15.457Z,29.06
2016-04-25T10:11:15.476Z,29.25
2016-04-25T10:12:15.509Z,29.35
2016-04-25T10:13:15.527Z,29.83
2016-04-25T10:14:17.422Z,29.73
2016-04-25T10:15:15.565Z,29.16
2016-04-25T10:16:15.598Z,29.36
2016-04-25T10:17:15.601Z,29.25
2016-04-25T10:18:15.635Z,29.44
2016-04-25T10:19:15.653Z,29.36
2016-04-25T10:20:15.672Z,29.74
2016-04-25T10:21:15.706Z,29.55
2016-04-25T10:22:15.708Z,29.36
2016-04-25T10:23:15.741Z,29.46
2016-04-25T10:24:15.760Z,29.27
2016-04-25T10:25:15.779Z,29.55
2016-04-25T10:26:15.797Z,29.55
2016-04-25T10:27:15.832Z,29.17
2016-04-25T10:28:15.849Z,29.27
2016-04-25T10:29:18.462Z,28.98
2016-04-25T10:30:15.886Z,29.17
2016-04-25T10:31:15.927Z,28.88
2016-04-25T10:32:15.929Z,28.98
2016-04-25T10:33:15.946Z,29.08
2016-04-25T10:34:16.824Z,28.69
2016-04-25T10:35:17.202Z,29.27
2016-04-25T10:36:16.027Z,29.84
2016-04-25T10:37:16.029Z,29.74
2016-04-25T10:38:16.048Z,30.22
2016-04-25T10:39:16.082Z,30.03
2016-04-25T10:40:16.117Z,30.03
2016-04-25T10:41:16.120Z,29.84
2016-04-25T10:42:16.153Z,29.94
2016-04-25T10:43:16.170Z,29.94
2016-04-25T10:44:16.705Z,29.55
2016-04-25T10:45:16.223Z,29.84
2016-04-25T10:46:16.226Z,29.46
2016-04-25T10:47:16.244Z,29.65
2016-04-25T10:48:16.278Z,29.74
2016-04-25T10:49:17.656Z,29.83
2016-04-25T10:50:16.315Z,30.02
2016-04-25T10:51:16.349Z,29.73
2016-04-25T10:52:16.352Z,29.92
2016-04-25T10:53:16.401Z,29.54
2016-04-25T10:54:16.404Z,29.44
2016-04-25T10:55:16.437Z,29.44
2016-04-25T10:56:16.472Z,29.54
2016-04-25T10:57:16.490Z,29.83
2016-04-25T10:58:16.493Z,29.92
2016-04-25T10:59:17.948Z,29.63
2016-04-25T11:00:16.530Z,30.11
2016-04-25T11:01:16.579Z,30.13
2016-04-25T11:02:16.582Z,29.94
2016-04-25T11:03:16.599Z,29.55
2016-04-25T11:04:16.634Z,29.84
2016-04-25T11:05:16.637Z,29.74
2016-04-25T11:06:16.670Z,29.46
2016-04-25T11:07:16.689Z,29.46
2016-04-25T11:08:16.707Z,29.46
2016-04-25T11:09:16.726Z,29.17
2016-04-25T11:10:16.743Z,29.27
2016-04-25T11:11:16.778Z,28.79
2016-04-25T11:12:16.781Z,28.5
2016-04-25T11:13:16.814Z,28.88
2016-04-25T11:14:16.675Z,28.79
2016-04-25T11:15:16.851Z,28.69
2016-04-25T11:16:16.869Z,28.69
2016-04-25T11:17:16.903Z,28.88
2016-04-25T11:18:16.922Z,28.69
2016-04-25T11:19:16.940Z,29.17
2016-04-25T11:20:16.958Z,28.88
2016-04-25T11:21:16.992Z,29.17
2016-04-25T11:22:17.011Z,28.88
2016-04-25T11:23:17.028Z,28.79
2016-04-25T11:24:17.063Z,28.98
2016-04-25T11:25:17.080Z,29.27
2016-04-25T11:26:17.099Z,29.84
2016-04-25T11:27:17.118Z,29.66
2016-04-25T11:28:17.136Z,30.15
2016-04-25T11:29:17.155Z,30.15
2016-04-25T11:30:17.188Z,30.05
2016-04-25T11:31:17.207Z,29.66
2016-04-25T11:32:17.225Z,29.76
2016-04-25T11:33:17.243Z,29.57
2016-04-25T11:34:17.277Z,29.95
2016-04-25T11:35:17.295Z,29.49
2016-04-25T11:36:17.313Z,29.39
2016-04-25T11:37:17.348Z,29.39
2016-04-25T11:38:17.365Z,28.63
2016-04-25T11:39:17.384Z,28.81
2016-04-25T11:40:24.840Z,28.53
2016-04-25T11:41:17.420Z,27.95
2016-04-25T11:42:17.439Z,27.95
2016-04-25T11:43:17.473Z,27.58
2016-04-25T11:44:17.584Z,27.39
2016-04-25T11:45:17.525Z,27.11
2016-04-25T11:46:17.544Z,27.01
2016-04-25T11:47:17.426Z,26.92
2016-04-25T11:48:17.585Z,27.3
2016-04-25T11:49:17.593Z,27.2
2016-04-25T11:50:17.471Z,27.01
2016-04-25T11:51:17.645Z,27.2
2016-04-25T11:52:17.679Z,27.49
2016-04-25T11:53:17.702Z,27.2
2016-04-25T11:54:17.720Z,26.72
2016-04-25T11:55:17.738Z,26.82
2016-04-25T11:56:18.210Z,26.82
2016-04-25T11:57:17.791Z,27.01
2016-04-25T11:58:17.810Z,27.48
2016-04-25T11:59:18.531Z,27.68
2016-04-25T12:00:17.846Z,27.68
2016-04-25T12:01:17.879Z,27.49
2016-04-25T12:02:17.898Z,27.49
2016-04-25T12:03:17.932Z,27.49
2016-04-25T12:04:17.935Z,27.68
2016-04-25T12:05:17.953Z,27.49
2016-04-25T12:06:17.987Z,27.2
2016-04-25T12:07:18.005Z,27.5
2016-04-25T12:08:18.023Z,26.83
2016-04-25T12:09:18.058Z,26.83
2016-04-25T12:10:18.076Z,26.74
2016-04-25T12:11:18.094Z,26.54
2016-04-25T12:12:18.113Z,25.97
2016-04-25T12:13:18.162Z,26.54
2016-04-25T12:14:18.586Z,25.86
2016-04-25T12:15:18.199Z,25.3
2016-04-25T12:16:18.216Z,25.97
2016-04-25T12:17:18.235Z,25.86
2016-04-25T12:18:18.254Z,25.96
2016-04-25T12:19:18.303Z,25.96
2016-04-25T12:20:18.306Z,25.87
2016-04-25T12:21:18.324Z,25.87
2016-04-25T12:22:18.358Z,25.87
2016-04-25T12:23:18.377Z,25.4
2016-04-25T12:24:18.395Z,25.01
2016-04-25T12:25:18.429Z,25.01
2016-04-25T12:26:18.432Z,24.82
2016-04-25T12:27:18.465Z,24.15
2016-04-25T12:28:18.484Z,23.86
2016-04-25T12:29:18.346Z,23.38
2016-04-25T12:30:18.396Z,23.28
2016-04-25T12:31:18.554Z,23.28
2016-04-25T12:32:18.573Z,23.1
2016-04-25T12:33:18.607Z,23.19
2016-04-25T12:34:18.625Z,23.28
2016-04-25T12:35:18.659Z,23.47
2016-04-25T12:36:18.505Z,22.61
2016-04-25T12:37:18.555Z,22.61
2016-04-25T12:38:18.729Z,22.71
2016-04-25T12:39:18.747Z,22.91
2016-04-25T12:40:18.766Z,22.71
2016-04-25T12:41:18.800Z,22.89
2016-04-25T12:42:18.819Z,23.1
2016-04-25T12:43:18.836Z,22.91
2016-04-25T12:44:19.605Z,23.1
2016-04-25T12:45:18.889Z,23.19
2016-04-25T12:46:18.907Z,23.67
2016-04-25T12:47:18.926Z,23.38
2016-04-25T12:48:18.944Z,23.38
2016-04-25T12:49:18.977Z,23.38
2016-04-25T12:50:19.012Z,23.1
2016-04-25T12:51:19.014Z,23.96
2016-04-25T12:52:19.048Z,23.88
2016-04-25T12:53:19.066Z,23.78
2016-04-25T12:54:18.929Z,23.97